sensor_id;sensor_type;location;lat;lon;timestamp;temperature;humidity
39067;DHT22;24821;51.988;6.020;2023-04-01T00:00:19;10.90;99.90
39067;DHT22;24821;51.988;6.020;2023-04-01T00:02:44;10.80;99.90
39067;DHT22;24821;51.988;6.020;2023-04-01T00:05:11;10.80;99.90
39067;DHT22;24821;51.988;6.020;2023-04-01T00:07:38;10.80;99.90
39067;DHT22;24821;51.988;6.020;2023-04-01T00:10:08;10.80;99.90
39067;DHT22;24821;51.988;6.020;2023-04-01T00:12:35;10.80;99.90
39067;DHT22;24821;51.988;6.020;2023-04-01T00:15:02;10.80;99.90
39067;DHT22;24821;51.988;6.020;2023-04-01T00:17:28;10.80;99.90
39067;DHT22;24821;51.988;6.020;2023-04-01T00:19:57;10.80;99.90
39067;DHT22;24821;51.988;6.020;2023-04-01T00:22:24;10.80;99.90
39067;DHT22;24821;51.988;6.020;2023-04-01T00:24:50;10.70;99.90
39067;DHT22;24821;51.988;6.020;2023-04-01T00:27:15;10.70;99.90
39067;DHT22;24821;51.988;6.020;2023-04-01T00:29:42;10.70;99.90
39067;DHT22;24821;51.988;6.020;2023-04-01T00:32:08;10.70;99.90
39067;DHT22;24821;51.988;6.020;2023-04-01T00:34:34;10.70;99.90
39067;DHT22;24821;51.988;6.020;2023-04-01T00:37:00;10.70;99.90
39067;DHT22;24821;51.988;6.020;2023-04-01T00:39:29;10.80;99.90
39067;DHT22;24821;51.988;6.020;2023-04-01T00:41:54;10.80;99.90
39067;DHT22;24821;51.988;6.020;2023-04-01T00:44:25;10.80;99.90
39067;DHT22;24821;51.988;6.020;2023-04-01T00:46:51;10.80;99.90
39067;DHT22;24821;51.988;6.020;2023-04-01T00:49:20;10.90;99.90
39067;DHT22;24821;51.988;6.020;2023-04-01T00:51:50;10.90;99.90
39067;DHT22;24821;51.988;6.020;2023-04-01T00:54:16;10.90;99.90
39067;DHT22;24821;51.988;6.020;2023-04-01T00:57:15;10.90;99.90
39067;DHT22;24821;51.988;6.020;2023-04-01T00:59:46;11.00;99.90
39067;DHT22;24821;51.988;6.020;2023-04-01T01:02:14;10.90;99.90
39067;DHT22;24821;51.988;6.020;2023-04-01T01:04:40;10.90;99.90
39067;DHT22;24821;51.988;6.020;2023-04-01T01:07:29;11.00;99.90
39067;DHT22;24821;51.988;6.020;2023-04-01T01:10:24;11.00;99.90
39067;DHT22;24821;51.988;6.020;2023-04-01T01:18:27;11.00;99.90
39067;DHT22;24821;51.988;6.020;2023-04-01T01:21:23;11.00;99.90
39067;DHT22;24821;51.988;6.020;2023-04-01T01:27:00;11.00;99.90
39067;DHT22;24821;51.988;6.020;2023-04-01T01:32:54;11.00;99.90
39067;DHT22;24821;51.988;6.020;2023-04-01T01:38:05;11.00;99.90
39067;DHT22;24821;51.988;6.020;2023-04-01T01:40:34;11.00;99.90
39067;DHT22;24821;51.988;6.020;2023-04-01T01:43:05;11.00;99.90
39067;DHT22;24821;51.988;6.020;2023-04-01T01:45:32;11.00;99.90
39067;DHT22;24821;51.988;6.020;2023-04-01T01:48:00;11.00;99.90
39067;DHT22;24821;51.988;6.020;2023-04-01T01:50:27;11.00;99.90
39067;DHT22;24821;51.988;6.020;2023-04-01T01:53:08;11.00;99.90
39067;DHT22;24821;51.988;6.020;2023-04-01T01:55:37;11.00;99.90
39067;DHT22;24821;51.988;6.020;2023-04-01T01:58:11;11.00;99.90
39067;DHT22;24821;51.988;6.020;2023-04-01T02:00:37;11.00;99.90
39067;DHT22;24821;51.988;6.020;2023-04-01T02:03:04;11.00;99.90
39067;DHT22;24821;51.988;6.020;2023-04-01T02:05:31;11.00;99.90
39067;DHT22;24821;51.988;6.020;2023-04-01T02:08:10;11.00;99.90
39067;DHT22;24821;51.988;6.020;2023-04-01T02:10:40;11.10;99.90
39067;DHT22;24821;51.988;6.020;2023-04-01T02:13:18;11.10;99.90
39067;DHT22;24821;51.988;6.020;2023-04-01T02:15:48;11.10;99.90
39067;DHT22;24821;51.988;6.020;2023-04-01T02:18:16;11.10;99.90
39067;DHT22;24821;51.988;6.020;2023-04-01T02:20:44;11.10;99.90
39067;DHT22;24821;51.988;6.020;2023-04-01T02:23:10;11.20;99.90
39067;DHT22;24821;51.988;6.020;2023-04-01T02:25:37;11.20;99.90
39067;DHT22;24821;51.988;6.020;2023-04-01T02:28:07;11.10;99.90
39067;DHT22;24821;51.988;6.020;2023-04-01T02:30:35;11.10;99.90
39067;DHT22;24821;51.988;6.020;2023-04-01T02:33:03;11.10;99.90
39067;DHT22;24821;51.988;6.020;2023-04-01T02:35:29;11.10;99.90
39067;DHT22;24821;51.988;6.020;2023-04-01T02:37:55;11.10;99.90
39067;DHT22;24821;51.988;6.020;2023-04-01T02:40:21;11.00;99.90
39067;DHT22;24821;51.988;6.020;2023-04-01T02:42:47;11.00;99.90
39067;DHT22;24821;51.988;6.020;2023-04-01T02:45:13;11.00;99.90
39067;DHT22;24821;51.988;6.020;2023-04-01T02:47:39;11.00;99.90
39067;DHT22;24821;51.988;6.020;2023-04-01T02:50:06;11.00;99.90
39067;DHT22;24821;51.988;6.020;2023-04-01T02:52:31;11.00;99.90
39067;DHT22;24821;51.988;6.020;2023-04-01T02:54:57;11.00;99.90
39067;DHT22;24821;51.988;6.020;2023-04-01T02:57:24;11.00;99.90
39067;DHT22;24821;51.988;6.020;2023-04-01T02:59:49;11.00;99.90
39067;DHT22;24821;51.988;6.020;2023-04-01T03:02:16;11.00;99.90
39067;DHT22;24821;51.988;6.020;2023-04-01T03:04:42;11.00;99.90
39067;DHT22;24821;51.988;6.020;2023-04-01T03:07:08;11.00;99.90
39067;DHT22;24821;51.988;6.020;2023-04-01T03:09:35;11.00;99.90
39067;DHT22;24821;51.988;6.020;2023-04-01T03:12:01;11.00;99.90
39067;DHT22;24821;51.988;6.020;2023-04-01T03:14:27;11.00;99.90
39067;DHT22;24821;51.988;6.020;2023-04-01T03:16:52;11.00;99.90
39067;DHT22;24821;51.988;6.020;2023-04-01T03:19:18;11.00;99.90
39067;DHT22;24821;51.988;6.020;2023-04-01T03:21:43;11.00;99.90
39067;DHT22;24821;51.988;6.020;2023-04-01T03:24:09;10.90;99.90
39067;DHT22;24821;51.988;6.020;2023-04-01T03:26:35;10.90;99.90
39067;DHT22;24821;51.988;6.020;2023-04-01T03:29:00;10.90;99.90
39067;DHT22;24821;51.988;6.020;2023-04-01T03:31:26;10.90;99.90
39067;DHT22;24821;51.988;6.020;2023-04-01T03:33:51;10.80;99.90
39067;DHT22;24821;51.988;6.020;2023-04-01T03:36:17;10.80;99.90
39067;DHT22;24821;51.988;6.020;2023-04-01T03:38:44;10.80;99.90
39067;DHT22;24821;51.988;6.020;2023-04-01T03:41:15;10.80;99.90
39067;DHT22;24821;51.988;6.020;2023-04-01T03:43:41;10.80;99.90
39067;DHT22;24821;51.988;6.020;2023-04-01T03:46:06;10.80;99.90
39067;DHT22;24821;51.988;6.020;2023-04-01T03:48:32;10.80;99.90
39067;DHT22;24821;51.988;6.020;2023-04-01T03:50:58;10.80;99.90
39067;DHT22;24821;51.988;6.020;2023-04-01T03:53:23;10.70;99.90
39067;DHT22;24821;51.988;6.020;2023-04-01T03:55:49;10.70;99.90
39067;DHT22;24821;51.988;6.020;2023-04-01T03:58:16;10.70;99.90
39067;DHT22;24821;51.988;6.020;2023-04-01T04:00:43;10.70;99.90
39067;DHT22;24821;51.988;6.020;2023-04-01T04:03:08;10.70;99.90
39067;DHT22;24821;51.988;6.020;2023-04-01T04:05:34;10.70;99.90
39067;DHT22;24821;51.988;6.020;2023-04-01T04:07:59;10.70;99.90
39067;DHT22;24821;51.988;6.020;2023-04-01T04:10:25;10.70;99.90
39067;DHT22;24821;51.988;6.020;2023-04-01T04:12:51;10.70;99.90
39067;DHT22;24821;51.988;6.020;2023-04-01T04:15:17;10.70;99.90
39067;DHT22;24821;51.988;6.020;2023-04-01T04:17:44;10.70;99.90
39067;DHT22;24821;51.988;6.020;2023-04-01T04:20:10;10.70;99.90
39067;DHT22;24821;51.988;6.020;2023-04-01T04:22:36;10.70;99.90
39067;DHT22;24821;51.988;6.020;2023-04-01T04:25:02;10.70;99.90
39067;DHT22;24821;51.988;6.020;2023-04-01T04:27:27;10.80;99.90
39067;DHT22;24821;51.988;6.020;2023-04-01T04:29:53;10.70;99.90
39067;DHT22;24821;51.988;6.020;2023-04-01T04:32:18;10.70;99.90
39067;DHT22;24821;51.988;6.020;2023-04-01T04:34:44;10.70;99.90
39067;DHT22;24821;51.988;6.020;2023-04-01T04:37:10;10.70;99.90
39067;DHT22;24821;51.988;6.020;2023-04-01T04:39:35;10.70;99.90
39067;DHT22;24821;51.988;6.020;2023-04-01T04:42:01;10.70;99.90
39067;DHT22;24821;51.988;6.020;2023-04-01T04:44:26;10.70;99.90
39067;DHT22;24821;51.988;6.020;2023-04-01T04:46:52;10.70;99.90
39067;DHT22;24821;51.988;6.020;2023-04-01T04:49:17;10.70;99.90
39067;DHT22;24821;51.988;6.020;2023-04-01T04:51:43;10.70;99.90
39067;DHT22;24821;51.988;6.020;2023-04-01T04:54:10;10.70;99.90
39067;DHT22;24821;51.988;6.020;2023-04-01T04:56:36;10.70;99.90
39067;DHT22;24821;51.988;6.020;2023-04-01T04:59:01;10.70;99.90
39067;DHT22;24821;51.988;6.020;2023-04-01T05:01:27;10.70;99.90
39067;DHT22;24821;51.988;6.020;2023-04-01T05:03:52;10.70;99.90
39067;DHT22;24821;51.988;6.020;2023-04-01T05:06:19;10.70;99.90
39067;DHT22;24821;51.988;6.020;2023-04-01T05:08:45;10.80;99.90
39067;DHT22;24821;51.988;6.020;2023-04-01T05:11:18;10.70;99.90
39067;DHT22;24821;51.988;6.020;2023-04-01T05:13:45;10.80;99.90
39067;DHT22;24821;51.988;6.020;2023-04-01T05:16:12;10.80;99.90
39067;DHT22;24821;51.988;6.020;2023-04-01T05:18:38;10.80;99.90
39067;DHT22;24821;51.988;6.020;2023-04-01T05:21:04;10.80;99.90
39067;DHT22;24821;51.988;6.020;2023-04-01T05:23:31;10.80;99.90
39067;DHT22;24821;51.988;6.020;2023-04-01T05:25:57;10.80;99.90
39067;DHT22;24821;51.988;6.020;2023-04-01T05:28:22;10.80;99.90
39067;DHT22;24821;51.988;6.020;2023-04-01T05:30:48;10.80;99.90
39067;DHT22;24821;51.988;6.020;2023-04-01T05:33:14;10.80;99.90
39067;DHT22;24821;51.988;6.020;2023-04-01T05:35:40;10.80;99.90
39067;DHT22;24821;51.988;6.020;2023-04-01T05:38:06;10.90;99.90
39067;DHT22;24821;51.988;6.020;2023-04-01T05:40:32;10.90;99.90
39067;DHT22;24821;51.988;6.020;2023-04-01T05:42:59;10.90;99.90
39067;DHT22;24821;51.988;6.020;2023-04-01T05:45:25;10.90;99.90
39067;DHT22;24821;51.988;6.020;2023-04-01T05:47:50;10.90;99.90
39067;DHT22;24821;51.988;6.020;2023-04-01T05:50:16;11.00;99.90
39067;DHT22;24821;51.988;6.020;2023-04-01T05:52:42;10.90;99.90
39067;DHT22;24821;51.988;6.020;2023-04-01T05:55:08;11.00;99.90
39067;DHT22;24821;51.988;6.020;2023-04-01T05:57:33;11.00;99.90
39067;DHT22;24821;51.988;6.020;2023-04-01T05:59:59;11.00;99.90
39067;DHT22;24821;51.988;6.020;2023-04-01T06:02:25;11.00;99.90
39067;DHT22;24821;51.988;6.020;2023-04-01T06:04:59;11.00;99.90
39067;DHT22;24821;51.988;6.020;2023-04-01T06:07:27;11.10;99.90
39067;DHT22;24821;51.988;6.020;2023-04-01T06:09:54;11.10;99.90
39067;DHT22;24821;51.988;6.020;2023-04-01T06:15:25;11.20;99.90
39067;DHT22;24821;51.988;6.020;2023-04-01T06:24:18;11.20;99.90
39067;DHT22;24821;51.988;6.020;2023-04-01T06:27:16;11.20;99.90
39067;DHT22;24821;51.988;6.020;2023-04-01T06:29:47;11.20;99.90
39067;DHT22;24821;51.988;6.020;2023-04-01T06:32:35;11.20;99.90
39067;DHT22;24821;51.988;6.020;2023-04-01T06:47:27;11.20;99.90
39067;DHT22;24821;51.988;6.020;2023-04-01T06:49:31;11.30;99.90
39067;DHT22;24821;51.988;6.020;2023-04-01T06:52:19;11.30;99.90
39067;DHT22;24821;51.988;6.020;2023-04-01T06:54:52;11.40;99.90
39067;DHT22;24821;51.988;6.020;2023-04-01T06:57:32;11.40;99.90
39067;DHT22;24821;51.988;6.020;2023-04-01T07:00:01;11.50;99.90
39067;DHT22;24821;51.988;6.020;2023-04-01T07:02:43;11.50;99.90
39067;DHT22;24821;51.988;6.020;2023-04-01T07:05:11;11.70;99.90
39067;DHT22;24821;51.988;6.020;2023-04-01T07:07:47;11.70;99.90
39067;DHT22;24821;51.988;6.020;2023-04-01T07:10:17;11.70;99.90
39067;DHT22;24821;51.988;6.020;2023-04-01T07:12:58;11.70;99.90
39067;DHT22;24821;51.988;6.020;2023-04-01T07:15:39;11.80;99.90
39067;DHT22;24821;51.988;6.020;2023-04-01T07:18:14;11.80;99.90
39067;DHT22;24821;51.988;6.020;2023-04-01T07:20:42;11.80;99.90
39067;DHT22;24821;51.988;6.020;2023-04-01T07:23:16;11.90;99.90
39067;DHT22;24821;51.988;6.020;2023-04-01T07:25:47;12.00;99.90
39067;DHT22;24821;51.988;6.020;2023-04-01T07:28:16;11.90;99.90
39067;DHT22;24821;51.988;6.020;2023-04-01T07:44:27;12.40;99.90
39067;DHT22;24821;51.988;6.020;2023-04-01T07:53:13;12.60;99.90
39067;DHT22;24821;51.988;6.020;2023-04-01T07:55:43;12.60;99.90
39067;DHT22;24821;51.988;6.020;2023-04-01T08:01:39;12.80;99.90
39067;DHT22;24821;51.988;6.020;2023-04-01T08:06:33;12.90;99.90
39067;DHT22;24821;51.988;6.020;2023-04-01T08:09:40;12.90;99.90
39067;DHT22;24821;51.988;6.020;2023-04-01T08:12:35;13.00;99.90
39067;DHT22;24821;51.988;6.020;2023-04-01T08:15:19;13.00;99.90
39067;DHT22;24821;51.988;6.020;2023-04-01T08:21:14;13.00;99.90
39067;DHT22;24821;51.988;6.020;2023-04-01T08:23:46;12.90;99.90
39067;DHT22;24821;51.988;6.020;2023-04-01T08:26:27;12.90;99.90
39067;DHT22;24821;51.988;6.020;2023-04-01T08:29:14;12.90;99.90
39067;DHT22;24821;51.988;6.020;2023-04-01T08:31:51;12.90;99.90
39067;DHT22;24821;51.988;6.020;2023-04-01T08:34:23;13.00;99.90
39067;DHT22;24821;51.988;6.020;2023-04-01T08:37:00;13.10;99.90
39067;DHT22;24821;51.988;6.020;2023-04-01T08:39:36;13.10;99.90
39067;DHT22;24821;51.988;6.020;2023-04-01T08:45:28;13.20;99.90
39067;DHT22;24821;51.988;6.020;2023-04-01T08:48:31;13.30;99.90
39067;DHT22;24821;51.988;6.020;2023-04-01T08:53:50;13.30;99.90
39067;DHT22;24821;51.988;6.020;2023-04-01T08:59:45;13.30;99.90
39067;DHT22;24821;51.988;6.020;2023-04-01T09:19:40;13.40;99.90
39067;DHT22;24821;51.988;6.020;2023-04-01T09:22:30;13.40;99.90
39067;DHT22;24821;51.988;6.020;2023-04-01T09:28:42;13.40;99.90
39067;DHT22;24821;51.988;6.020;2023-04-01T09:31:14;13.30;99.90
39067;DHT22;24821;51.988;6.020;2023-04-01T09:36:45;13.40;99.90
39067;DHT22;24821;51.988;6.020;2023-04-01T09:42:14;13.30;99.90
39067;DHT22;24821;51.988;6.020;2023-04-01T09:44:48;13.20;99.90
39067;DHT22;24821;51.988;6.020;2023-04-01T10:00:55;13.20;99.90
39067;DHT22;24821;51.988;6.020;2023-04-01T10:06:23;13.00;99.90
39067;DHT22;24821;51.988;6.020;2023-04-01T10:32:10;12.90;99.90
39067;DHT22;24821;51.988;6.020;2023-04-01T10:35:14;13.00;99.90
39067;DHT22;24821;51.988;6.020;2023-04-01T10:38:12;13.00;99.90
39067;DHT22;24821;51.988;6.020;2023-04-01T10:55:35;13.30;99.90
39067;DHT22;24821;51.988;6.020;2023-04-01T11:01:03;13.30;99.90
39067;DHT22;24821;51.988;6.020;2023-04-01T11:06:30;13.20;99.90
39067;DHT22;24821;51.988;6.020;2023-04-01T11:09:26;13.20;99.90
39067;DHT22;24821;51.988;6.020;2023-04-01T11:12:20;13.30;99.90
39067;DHT22;24821;51.988;6.020;2023-04-01T11:26:19;13.10;99.90
39067;DHT22;24821;51.988;6.020;2023-04-01T11:34:32;13.00;99.90
39067;DHT22;24821;51.988;6.020;2023-04-01T11:46:11;12.90;99.90
39067;DHT22;24821;51.988;6.020;2023-04-01T11:54:28;12.90;99.90
39067;DHT22;24821;51.988;6.020;2023-04-01T11:57:02;12.90;99.90
39067;DHT22;24821;51.988;6.020;2023-04-01T12:03:02;12.90;99.90
39067;DHT22;24821;51.988;6.020;2023-04-01T12:09:03;13.00;99.90
39067;DHT22;24821;51.988;6.020;2023-04-01T12:11:48;13.00;99.90
39067;DHT22;24821;51.988;6.020;2023-04-01T12:14:59;13.20;99.90
39067;DHT22;24821;51.988;6.020;2023-04-01T12:17:43;13.30;99.90
39067;DHT22;24821;51.988;6.020;2023-04-01T12:20:36;13.30;99.90
39067;DHT22;24821;51.988;6.020;2023-04-01T12:36:55;13.80;99.90
39067;DHT22;24821;51.988;6.020;2023-04-01T12:45:34;13.70;99.90
39067;DHT22;24821;51.988;6.020;2023-04-01T12:50:55;13.60;99.90
39067;DHT22;24821;51.988;6.020;2023-04-01T12:54:11;13.70;99.90
39067;DHT22;24821;51.988;6.020;2023-04-01T13:08:34;13.90;99.90
39067;DHT22;24821;51.988;6.020;2023-04-01T13:11:13;13.90;99.90
39067;DHT22;24821;51.988;6.020;2023-04-01T13:13:47;14.00;99.90
39067;DHT22;24821;51.988;6.020;2023-04-01T13:16:25;14.10;99.90
39067;DHT22;24821;51.988;6.020;2023-04-01T13:21:54;14.30;99.90
39067;DHT22;24821;51.988;6.020;2023-04-01T13:41:23;14.10;99.90
39067;DHT22;24821;51.988;6.020;2023-04-01T13:44:09;13.90;99.90
39067;DHT22;24821;51.988;6.020;2023-04-01T13:46:52;13.80;99.90
39067;DHT22;24821;51.988;6.020;2023-04-01T14:00:38;13.50;99.90
39067;DHT22;24821;51.988;6.020;2023-04-01T14:03:12;13.60;99.90
39067;DHT22;24821;51.988;6.020;2023-04-01T14:05:50;13.50;99.90
39067;DHT22;24821;51.988;6.020;2023-04-01T14:14:21;13.50;99.90
39067;DHT22;24821;51.988;6.020;2023-04-01T14:17:17;13.60;99.90
39067;DHT22;24821;51.988;6.020;2023-04-01T14:23:11;13.50;99.90
39067;DHT22;24821;51.988;6.020;2023-04-01T14:25:41;13.60;99.90
39067;DHT22;24821;51.988;6.020;2023-04-01T14:33:46;13.60;99.90
39067;DHT22;24821;51.988;6.020;2023-04-01T14:45:20;13.70;99.90
39067;DHT22;24821;51.988;6.020;2023-04-01T14:48:17;13.70;99.90
39067;DHT22;24821;51.988;6.020;2023-04-01T14:50:46;13.70;99.90
39067;DHT22;24821;51.988;6.020;2023-04-01T14:55:56;13.80;99.90
39067;DHT22;24821;51.988;6.020;2023-04-01T14:58:40;13.80;99.90
39067;DHT22;24821;51.988;6.020;2023-04-01T15:15:21;14.10;99.90
39067;DHT22;24821;51.988;6.020;2023-04-01T15:18:15;14.10;99.90
39067;DHT22;24821;51.988;6.020;2023-04-01T15:25:45;13.90;99.90
39067;DHT22;24821;51.988;6.020;2023-04-01T15:28:28;13.70;99.90
39067;DHT22;24821;51.988;6.020;2023-04-01T15:31:00;13.50;99.90
39067;DHT22;24821;51.988;6.020;2023-04-01T15:33:39;13.40;99.90
39067;DHT22;24821;51.988;6.020;2023-04-01T15:39:31;13.30;99.90
39067;DHT22;24821;51.988;6.020;2023-04-01T15:44:52;13.10;99.90
39067;DHT22;24821;51.988;6.020;2023-04-01T16:06:24;12.90;99.90
39067;DHT22;24821;51.988;6.020;2023-04-01T16:11:27;12.90;99.90
39067;DHT22;24821;51.988;6.020;2023-04-01T16:19:28;12.80;99.90
39067;DHT22;24821;51.988;6.020;2023-04-01T16:22:07;12.80;99.90
39067;DHT22;24821;51.988;6.020;2023-04-01T16:25:14;12.70;99.90
39067;DHT22;24821;51.988;6.020;2023-04-01T16:27:46;12.70;99.90
39067;DHT22;24821;51.988;6.020;2023-04-01T16:30:35;12.60;99.90
39067;DHT22;24821;51.988;6.020;2023-04-01T16:39:29;12.40;99.90
39067;DHT22;24821;51.988;6.020;2023-04-01T16:42:55;12.30;99.90
39067;DHT22;24821;51.988;6.020;2023-04-01T16:45:08;12.20;99.90
39067;DHT22;24821;51.988;6.020;2023-04-01T16:51:01;12.10;99.90
39067;DHT22;24821;51.988;6.020;2023-04-01T16:54:02;12.10;99.90
39067;DHT22;24821;51.988;6.020;2023-04-01T16:56:38;12.00;99.90
39067;DHT22;24821;51.988;6.020;2023-04-01T16:59:27;11.90;99.90
39067;DHT22;24821;51.988;6.020;2023-04-01T17:12:40;11.70;99.90
39067;DHT22;24821;51.988;6.020;2023-04-01T17:15:21;11.60;99.90
39067;DHT22;24821;51.988;6.020;2023-04-01T17:18:13;11.60;99.90
39067;DHT22;24821;51.988;6.020;2023-04-01T17:21:16;11.60;99.90
39067;DHT22;24821;51.988;6.020;2023-04-01T17:23:51;11.50;99.90
39067;DHT22;24821;51.988;6.020;2023-04-01T17:26:42;11.50;99.90
39067;DHT22;24821;51.988;6.020;2023-04-01T17:35:48;11.40;99.90
39067;DHT22;24821;51.988;6.020;2023-04-01T17:38:54;11.40;99.90
39067;DHT22;24821;51.988;6.020;2023-04-01T17:40:57;11.30;99.90
39067;DHT22;24821;51.988;6.020;2023-04-01T17:46:50;11.30;99.90
39067;DHT22;24821;51.988;6.020;2023-04-01T17:49:35;11.30;99.90
39067;DHT22;24821;51.988;6.020;2023-04-01T17:52:17;11.20;99.90
39067;DHT22;24821;51.988;6.020;2023-04-01T17:54:58;11.10;99.90
39067;DHT22;24821;51.988;6.020;2023-04-01T17:57:30;11.10;99.90
39067;DHT22;24821;51.988;6.020;2023-04-01T18:17:23;10.80;99.90
39067;DHT22;24821;51.988;6.020;2023-04-01T18:20:16;10.70;99.90
39067;DHT22;24821;51.988;6.020;2023-04-01T18:22:48;10.70;99.90
39067;DHT22;24821;51.988;6.020;2023-04-01T18:27:52;10.70;99.90
39067;DHT22;24821;51.988;6.020;2023-04-01T18:30:29;10.70;99.90
39067;DHT22;24821;51.988;6.020;2023-04-01T18:35:50;10.60;99.90
39067;DHT22;24821;51.988;6.020;2023-04-01T18:38:25;10.60;99.90
39067;DHT22;24821;51.988;6.020;2023-04-01T18:41:13;10.50;99.90
39067;DHT22;24821;51.988;6.020;2023-04-01T18:49:16;10.50;99.90
39067;DHT22;24821;51.988;6.020;2023-04-01T18:54:19;10.40;99.90
39067;DHT22;24821;51.988;6.020;2023-04-01T18:56:48;10.40;99.90
39067;DHT22;24821;51.988;6.020;2023-04-01T19:02:41;10.30;99.90
39067;DHT22;24821;51.988;6.020;2023-04-01T19:05:17;10.30;99.90
39067;DHT22;24821;51.988;6.020;2023-04-01T19:07:45;10.30;99.90
39067;DHT22;24821;51.988;6.020;2023-04-01T19:27:10;10.20;99.90
39067;DHT22;24821;51.988;6.020;2023-04-01T19:54:25;9.80;99.90
39067;DHT22;24821;51.988;6.020;2023-04-01T20:04:39;9.60;99.90
39067;DHT22;24821;51.988;6.020;2023-04-01T20:07:15;9.60;99.90
39067;DHT22;24821;51.988;6.020;2023-04-01T20:09:46;9.60;99.90
39067;DHT22;24821;51.988;6.020;2023-04-01T20:12:42;9.50;99.90
39067;DHT22;24821;51.988;6.020;2023-04-01T20:15:35;9.60;99.90
39067;DHT22;24821;51.988;6.020;2023-04-01T20:18:25;9.50;99.90
39067;DHT22;24821;51.988;6.020;2023-04-01T20:21:05;9.50;99.90
39067;DHT22;24821;51.988;6.020;2023-04-01T20:23:54;9.40;99.90
39067;DHT22;24821;51.988;6.020;2023-04-01T20:26:24;9.40;99.90
39067;DHT22;24821;51.988;6.020;2023-04-01T20:31:44;9.40;99.90
39067;DHT22;24821;51.988;6.020;2023-04-01T20:34:27;9.30;99.90
39067;DHT22;24821;51.988;6.020;2023-04-01T20:37:23;9.30;99.90
39067;DHT22;24821;51.988;6.020;2023-04-01T20:40:17;9.20;99.90
39067;DHT22;24821;51.988;6.020;2023-04-01T20:51:22;9.20;99.90
39067;DHT22;24821;51.988;6.020;2023-04-01T20:54:09;9.10;99.90
39067;DHT22;24821;51.988;6.020;2023-04-01T20:57:05;9.20;99.90
39067;DHT22;24821;51.988;6.020;2023-04-01T21:07:50;9.00;99.90
39067;DHT22;24821;51.988;6.020;2023-04-01T21:12:47;8.90;99.90
39067;DHT22;24821;51.988;6.020;2023-04-01T21:18:10;8.90;99.90
39067;DHT22;24821;51.988;6.020;2023-04-01T21:20:49;8.90;99.90
39067;DHT22;24821;51.988;6.020;2023-04-01T21:23:29;8.90;99.90
39067;DHT22;24821;51.988;6.020;2023-04-01T21:28:59;8.90;99.90
39067;DHT22;24821;51.988;6.020;2023-04-01T21:40:24;8.70;99.90
39067;DHT22;24821;51.988;6.020;2023-04-01T22:02:47;8.40;99.90
39067;DHT22;24821;51.988;6.020;2023-04-01T22:10:54;8.40;99.90
39067;DHT22;24821;51.988;6.020;2023-04-01T22:13:44;8.30;99.90
39067;DHT22;24821;51.988;6.020;2023-04-01T22:16:30;8.30;99.90
39067;DHT22;24821;51.988;6.020;2023-04-01T22:21:58;8.30;99.90
39067;DHT22;24821;51.988;6.020;2023-04-01T22:32:46;8.20;99.90
39067;DHT22;24821;51.988;6.020;2023-04-01T22:35:54;8.20;99.90
39067;DHT22;24821;51.988;6.020;2023-04-01T22:38:33;8.20;99.90
39067;DHT22;24821;51.988;6.020;2023-04-01T22:43:54;8.20;99.90
39067;DHT22;24821;51.988;6.020;2023-04-01T22:51:48;8.20;99.90
39067;DHT22;24821;51.988;6.020;2023-04-01T22:54:33;8.20;99.90
39067;DHT22;24821;51.988;6.020;2023-04-01T23:00:12;8.10;99.90
39067;DHT22;24821;51.988;6.020;2023-04-01T23:02:43;8.00;99.90
39067;DHT22;24821;51.988;6.020;2023-04-01T23:05:14;8.00;99.90
39067;DHT22;24821;51.988;6.020;2023-04-01T23:10:25;7.90;99.90
39067;DHT22;24821;51.988;6.020;2023-04-01T23:12:58;7.90;99.90
39067;DHT22;24821;51.988;6.020;2023-04-01T23:15:25;7.90;99.90
39067;DHT22;24821;51.988;6.020;2023-04-01T23:21:06;7.90;99.90
39067;DHT22;24821;51.988;6.020;2023-04-01T23:24:03;7.90;99.90
39067;DHT22;24821;51.988;6.020;2023-04-01T23:26:39;7.90;99.90
39067;DHT22;24821;51.988;6.020;2023-04-01T23:29:13;7.80;99.90
39067;DHT22;24821;51.988;6.020;2023-04-01T23:31:41;7.80;99.90
39067;DHT22;24821;51.988;6.020;2023-04-01T23:36:45;7.70;99.90
39067;DHT22;24821;51.988;6.020;2023-04-01T23:41:51;7.70;99.90
39067;DHT22;24821;51.988;6.020;2023-04-01T23:44:18;7.70;99.90
39067;DHT22;24821;51.988;6.020;2023-04-01T23:46:46;7.70;99.90
39067;DHT22;24821;51.988;6.020;2023-04-01T23:49:20;7.70;99.90
39067;DHT22;24821;51.988;6.020;2023-04-01T23:54:34;7.70;99.90
39067;DHT22;24821;51.988;6.020;2023-04-01T23:57:15;7.70;99.90
39067;DHT22;24821;51.988;6.020;2023-04-01T23:59:42;7.70;99.90
